Concerto — JJ3855 — position and weather

sailwx.info

Track history (hours):
 
Tides and Currents Weather Stations Pressure Air Temp Water Temp Dewpoint Dewpoint Depression Visibility Wind Speed Wind Dir Waves Ship Positions

Concerto

Last reported at 2015-Apr-28 11:33 UTC. Time now 2015-Apr-28 14:26 UTC.
Position N 34°38' E 135°10'.

Length 74 m; draft 3 m.

Type: Passenger vessel. MMSI: 431000448.

Date/timePositionNaut miles runAvg speedWind from/ knotsBaromVisibWave heightAir tempDewpointWater temp
2015-Apr-28 11:33N 34°38' E 135°10'2 1.9
2015-Apr-28 10:33N 34°40' E 135°11'1 0.8
2015-Apr-28 09:33N 34°39' E 135°11'1 0.6
2015-Apr-28 08:33N 34°39' E 135°11'2 2.1
2015-Apr-28 07:30N 34°41' E 135°11'3 3.5
2015-Apr-28 06:33N 34°38' E 135°09'3 3.0
2015-Apr-28 05:27N 34°41' E 135°11'1 0.9
2015-Apr-28 04:33N 34°40' E 135°12'3 2.6
2015-Apr-28 03:33N 34°38' E 135°10'1 0.0
2015-Apr-27 11:34N 34°38' E 135°11'2 2.0
2015-Apr-27 10:34N 34°40' E 135°11'0 0.4
2015-Apr-27 09:33N 34°39' E 135°11'1 1.0
2015-Apr-27 08:33N 34°39' E 135°11'2 2.1
2015-Apr-27 07:32N 34°41' E 135°11'3 3.1
2015-Apr-27 06:33N 34°38' E 135°09'3 2.6
2015-Apr-27 05:22N 34°41' E 135°11'0 0.5
2015-Apr-27 04:33N 34°40' E 135°11'3 3.1
2015-Apr-27 03:33N 34°38' E 135°09'3 3.2
2015-Apr-27 02:32N 34°41' E 135°11'0 0.0
2015-Apr-27 01:32N 34°41' E 135°11'0 0.0
2015-Apr-27 00:32N 34°41' E 135°11'0 0.0
2015-Apr-26 23:32N 34°41' E 135°11'0 0.0
2015-Apr-26 22:32N 34°41' E 135°11'0 0.0
2015-Apr-26 21:32N 34°41' E 135°11'0 0.0
2015-Apr-26 20:32N 34°41' E 135°11'0 0.0
2015-Apr-26 19:32N 34°41' E 135°11'0 0.0
2015-Apr-26 18:32N 34°41' E 135°11'0 0.0
2015-Apr-26 17:26N 34°41' E 135°11'0 0.0
2015-Apr-26 16:32N 34°41' E 135°11'0 0.0
2015-Apr-26 15:32N 34°41' E 135°11'0 0.0
2015-Apr-26 14:32N 34°41' E 135°11'0 0.0
2015-Apr-26 13:32N 34°41' E 135°11'0 0.0
2015-Apr-26 12:32N 34°41' E 135°11'3 3.0
2015-Apr-26 11:33N 34°38' E 135°11'2 2.1
2015-Apr-26 10:33N 34°40' E 135°11'1 0.6
2015-Apr-26 09:33N 34°39' E 135°11'1 0.8
2015-Apr-26 08:33N 34°39' E 135°11'2 2.1
2015-Apr-26 07:29N 34°41' E 135°11'3 3.6
2015-Apr-26 06:33N 34°38' E 135°09'3 3.4
2015-Apr-26 05:33N 34°41' E 135°11'1 0.8
2015-Apr-26 04:33N 34°40' E 135°12'3 3.0
2015-Apr-26 03:33N 34°38' E 135°09'3 3.1
2015-Apr-26 02:26N 34°41' E 135°11'0 0.0
2015-Apr-26 01:32N 34°41' E 135°11'0 0.0
2015-Apr-26 00:32N 34°41' E 135°11'0 0.0
2015-Apr-25 23:32N 34°41' E 135°11'0 0.0
2015-Apr-25 22:20N 34°41' E 135°11'0 0.0
2015-Apr-25 21:32N 34°41' E 135°11'0 0.0
2015-Apr-25 20:32N 34°41' E 135°11'0 0.0
2015-Apr-25 19:32N 34°41' E 135°11'0 0.0
2015-Apr-25 18:32N 34°41' E 135°11'0 0.0
2015-Apr-25 17:32N 34°41' E 135°11'0 0.0
2015-Apr-25 16:32N 34°41' E 135°11'0 0.0
2015-Apr-25 15:32N 34°41' E 135°11'0 0.0
2015-Apr-25 14:32N 34°41' E 135°11'0 0.0
2015-Apr-25 13:32N 34°41' E 135°11'0 0.0
2015-Apr-25 12:32N 34°41' E 135°11'3 3.2
2015-Apr-25 11:33N 34°38' E 135°11'3 2.6
2015-Apr-25 10:33N 34°40' E 135°11'1 0.7
2015-Apr-25 09:33N 34°40' E 135°11'1 1.1
2015-Apr-25 08:33N 34°39' E 135°11'2 2.2
2015-Apr-25 07:32N 34°41' E 135°11'3 3.3
2015-Apr-25 06:33N 34°38' E 135°09'3 3.3
2015-Apr-25 05:33N 34°41' E 135°11'1 0.5
2015-Apr-25 04:33N 34°40' E 135°11'3 2.9
2015-Apr-25 03:33N 34°38' E 135°09'3 3.1
2015-Apr-25 02:33N 34°41' E 135°11'0 0.0
2015-Apr-25 01:33N 34°41' E 135°11'0 0.0
2015-Apr-25 00:33N 34°41' E 135°11'0 0.0
2015-Apr-24 23:33N 34°41' E 135°11'0 0.0
2015-Apr-24 22:33N 34°41' E 135°11'0 0.0
2015-Apr-24 21:33N 34°41' E 135°11'0 0.0
2015-Apr-24 20:33N 34°41' E 135°11'0 0.0
2015-Apr-24 19:33N 34°41' E 135°11'0 0.0
2015-Apr-24 18:33N 34°41' E 135°11'0 0.0
2015-Apr-24 17:33N 34°41' E 135°11'0 0.0
2015-Apr-24 16:33N 34°41' E 135°11'0 0.0
2015-Apr-24 15:33N 34°41' E 135°11'0 0.0
2015-Apr-24 14:33N 34°41' E 135°11'0 0.0
2015-Apr-24 13:33N 34°41' E 135°11'0 0.0
2015-Apr-24 12:33N 34°41' E 135°11'4 3.8
2015-Apr-24 11:33N 34°37' E 135°09'3 3.1
2015-Apr-24 10:33N 34°40' E 135°11'0 0.1
2015-Apr-24 09:33N 34°40' E 135°11'1 1.3
2015-Apr-24 08:33N 34°39' E 135°11'2 2.3
2015-Apr-24 07:33N 34°41' E 135°11'3 3.0
2015-Apr-24 06:33N 34°38' E 135°10'3 2.2
2015-Apr-24 05:10N 34°41' E 135°11'1 0.9
2015-Apr-24 04:33N 34°40' E 135°11'3 2.7
2015-Apr-24 03:32N 34°38' E 135°10'3 3.0
2015-Apr-24 02:33N 34°41' E 135°11'0 0.0
2015-Apr-24 01:27N 34°41' E 135°11'0 0.0
2015-Apr-24 00:33N 34°41' E 135°11'0 0.0
2015-Apr-23 23:33N 34°41' E 135°11'0 0.0
2015-Apr-23 22:33N 34°41' E 135°11'0 0.0
2015-Apr-23 21:33N 34°41' E 135°11'0 0.0
2015-Apr-23 20:33N 34°41' E 135°11'0 0.0
2015-Apr-23 19:33N 34°41' E 135°11'0 0.0
2015-Apr-23 18:21N 34°41' E 135°11'0 0.0
2015-Apr-23 17:33N 34°41' E 135°11'0 0.0
2015-Apr-23 16:27N 34°41' E 135°11'0 0.0
2015-Apr-23 15:27N 34°41' E 135°11'0 0.0
2015-Apr-23 14:33N 34°41' E 135°11'0 0.0
2015-Apr-23 13:33N 34°41' E 135°11'0 0.0
2015-Apr-23 12:33N 34°41' E 135°11'3 3.0
2015-Apr-23 11:33N 34°38' E 135°11'2 2.1
2015-Apr-23 10:33N 34°40' E 135°11'0 0.2
2015-Apr-23 09:33N 34°40' E 135°11'1 0.8
2015-Apr-23 08:33N 34°39' E 135°11'2 1.9
2015-Apr-23 07:33N 34°41' E 135°11'3 3.0
2015-Apr-23 06:33N 34°38' E 135°10'3 2.8
2015-Apr-23 05:30N 34°41' E 135°11'0 0.4
2015-Apr-23 04:33N 34°40' E 135°11'3 3.0
2015-Apr-23 03:33N 34°38' E 135°09'3 3.1
2015-Apr-23 02:32N 34°41' E 135°11'0 0.0
2015-Apr-23 01:26N 34°41' E 135°11'0 0.0
2015-Apr-22 12:23N 34°41' E 135°11'3 3.6
2015-Apr-22 11:33N 34°38' E 135°10'2 2.0
2015-Apr-22 10:33N 34°40' E 135°11'0 0.4
2015-Apr-22 09:33N 34°39' E 135°11'1 0.7
2015-Apr-22 08:33N 34°39' E 135°11'2 1.9
2015-Apr-22 07:25N 34°41' E 135°11'3 3.7
2015-Apr-22 06:33N 34°38' E 135°09'3 2.8
2015-Apr-22 05:24N 34°41' E 135°11'1 0.7
2015-Apr-22 04:33N 34°40' E 135°12'3 2.6
2015-Apr-22 03:33N 34°38' E 135°10'1 0.1
2015-Apr-21 11:33N 34°38' E 135°11'2 1.6
2015-Apr-21 10:33N 34°40' E 135°11'0 0.3
2015-Apr-21 09:34N 34°39' E 135°11'1 1.1
2015-Apr-21 08:34N 34°39' E 135°10'2 2.1
2015-Apr-21 07:30N 34°41' E 135°11'3 3.5
2015-Apr-21 06:33N 34°38' E 135°09'3 3.3
2015-Apr-21 05:32N 34°41' E 135°11'0 0.4
2015-Apr-21 04:33N 34°41' E 135°11'3 2.9
2015-Apr-21 03:32N 34°38' E 135°09'1 0.1
2015-Apr-20 11:33N 34°38' E 135°11'2 1.7
2015-Apr-20 10:33N 34°40' E 135°11'1 0.9
2015-Apr-20 09:33N 34°40' E 135°12'2 1.7
2015-Apr-20 08:33N 34°39' E 135°11'2 1.9
2015-Apr-20 07:31N 34°41' E 135°11'1 1.1
2015-Apr-20 06:33N 34°40' E 135°12'1 1.1
2015-Apr-20 05:33N 34°41' E 135°11'0 0.1
2015-Apr-20 04:33N 34°41' E 135°11'2 2.3
2015-Apr-20 03:33N 34°38' E 135°11'1 0.1
2015-Apr-19 11:33N 34°38' E 135°10'3 2.9
2015-Apr-19 10:33N 34°41' E 135°11'1 1.2
2015-Apr-19 09:33N 34°39' E 135°11'1 1.0
2015-Apr-19 08:33N 34°38' E 135°11'2 2.2
2015-Apr-19 07:29N 34°41' E 135°11'3 3.2
2015-Apr-19 06:33N 34°38' E 135°10'3 2.4
2015-Apr-19 05:18N 34°41' E 135°11'1 0.8
2015-Apr-19 04:33N 34°40' E 135°12'3 3.2
2015-Apr-19 03:34N 34°38' E 135°09'3 0.2
2015-Apr-18 13:04N 34°41' E 135°11'0 0.0
2015-Apr-18 12:28N 34°41' E 135°11'3 3.0
2015-Apr-18 11:33N 34°38' E 135°11'  
Track history (hours):
 
Tides and Currents Weather Stations Pressure Air Temp Water Temp Dewpoint Dewpoint Depression Visibility Wind Speed Wind Dir Waves Ship Positions

Concerto

Last reported at 2015-Apr-28 11:33 UTC. Time now 2015-Apr-28 14:26 UTC.
Position N 34°38' E 135°10'.

Length 74 m; draft 3 m.

Type: Passenger vessel. MMSI: 431000448.

Date/timePositionNaut miles runAvg speedWind from/ knotsBaromVisibWave heightAir tempDewpointWater temp
2015-Apr-28 11:33N 34°38' E 135°10'2 1.9
2015-Apr-28 10:33N 34°40' E 135°11'1 0.8
2015-Apr-28 09:33N 34°39' E 135°11'1 0.6
2015-Apr-28 08:33N 34°39' E 135°11'2 2.1
2015-Apr-28 07:30N 34°41' E 135°11'3 3.5
2015-Apr-28 06:33N 34°38' E 135°09'3 3.0
2015-Apr-28 05:27N 34°41' E 135°11'1 0.9
2015-Apr-28 04:33N 34°40' E 135°12'3 2.6
2015-Apr-28 03:33N 34°38' E 135°10'1 0.0
2015-Apr-27 11:34N 34°38' E 135°11'2 2.0
2015-Apr-27 10:34N 34°40' E 135°11'0 0.4
2015-Apr-27 09:33N 34°39' E 135°11'1 1.0
2015-Apr-27 08:33N 34°39' E 135°11'2 2.1
2015-Apr-27 07:32N 34°41' E 135°11'3 3.1
2015-Apr-27 06:33N 34°38' E 135°09'3 2.6
2015-Apr-27 05:22N 34°41' E 135°11'0 0.5
2015-Apr-27 04:33N 34°40' E 135°11'3 3.1
2015-Apr-27 03:33N 34°38' E 135°09'3 3.2
2015-Apr-27 02:32N 34°41' E 135°11'0 0.0
2015-Apr-27 01:32N 34°41' E 135°11'0 0.0
2015-Apr-27 00:32N 34°41' E 135°11'0 0.0
2015-Apr-26 23:32N 34°41' E 135°11'0 0.0
2015-Apr-26 22:32N 34°41' E 135°11'0 0.0
2015-Apr-26 21:32N 34°41' E 135°11'0 0.0
2015-Apr-26 20:32N 34°41' E 135°11'0 0.0
2015-Apr-26 19:32N 34°41' E 135°11'0 0.0
2015-Apr-26 18:32N 34°41' E 135°11'0 0.0
2015-Apr-26 17:26N 34°41' E 135°11'0 0.0
2015-Apr-26 16:32N 34°41' E 135°11'0 0.0
2015-Apr-26 15:32N 34°41' E 135°11'0 0.0
2015-Apr-26 14:32N 34°41' E 135°11'0 0.0
2015-Apr-26 13:32N 34°41' E 135°11'0 0.0
2015-Apr-26 12:32N 34°41' E 135°11'3 3.0
2015-Apr-26 11:33N 34°38' E 135°11'2 2.1
2015-Apr-26 10:33N 34°40' E 135°11'1 0.6
2015-Apr-26 09:33N 34°39' E 135°11'1 0.8
2015-Apr-26 08:33N 34°39' E 135°11'2 2.1
2015-Apr-26 07:29N 34°41' E 135°11'3 3.6
2015-Apr-26 06:33N 34°38' E 135°09'3 3.4
2015-Apr-26 05:33N 34°41' E 135°11'1 0.8
2015-Apr-26 04:33N 34°40' E 135°12'3 3.0
2015-Apr-26 03:33N 34°38' E 135°09'3 3.1
2015-Apr-26 02:26N 34°41' E 135°11'0 0.0
2015-Apr-26 01:32N 34°41' E 135°11'0 0.0
2015-Apr-26 00:32N 34°41' E 135°11'0 0.0
2015-Apr-25 23:32N 34°41' E 135°11'0 0.0
2015-Apr-25 22:20N 34°41' E 135°11'0 0.0
2015-Apr-25 21:32N 34°41' E 135°11'0 0.0
2015-Apr-25 20:32N 34°41' E 135°11'0 0.0
2015-Apr-25 19:32N 34°41' E 135°11'0 0.0
2015-Apr-25 18:32N 34°41' E 135°11'0 0.0
2015-Apr-25 17:32N 34°41' E 135°11'0 0.0
2015-Apr-25 16:32N 34°41' E 135°11'0 0.0
2015-Apr-25 15:32N 34°41' E 135°11'0 0.0
2015-Apr-25 14:32N 34°41' E 135°11'0 0.0
2015-Apr-25 13:32N 34°41' E 135°11'0 0.0
2015-Apr-25 12:32N 34°41' E 135°11'3 3.2
2015-Apr-25 11:33N 34°38' E 135°11'3 2.6
2015-Apr-25 10:33N 34°40' E 135°11'1 0.7
2015-Apr-25 09:33N 34°40' E 135°11'1 1.1
2015-Apr-25 08:33N 34°39' E 135°11'2 2.2
2015-Apr-25 07:32N 34°41' E 135°11'3 3.3
2015-Apr-25 06:33N 34°38' E 135°09'3 3.3
2015-Apr-25 05:33N 34°41' E 135°11'1 0.5
2015-Apr-25 04:33N 34°40' E 135°11'3 2.9
2015-Apr-25 03:33N 34°38' E 135°09'3 3.1
2015-Apr-25 02:33N 34°41' E 135°11'0 0.0
2015-Apr-25 01:33N 34°41' E 135°11'0 0.0
2015-Apr-25 00:33N 34°41' E 135°11'0 0.0
2015-Apr-24 23:33N 34°41' E 135°11'0 0.0
2015-Apr-24 22:33N 34°41' E 135°11'0 0.0
2015-Apr-24 21:33N 34°41' E 135°11'0 0.0
2015-Apr-24 20:33N 34°41' E 135°11'0 0.0
2015-Apr-24 19:33N 34°41' E 135°11'0 0.0
2015-Apr-24 18:33N 34°41' E 135°11'0 0.0
2015-Apr-24 17:33N 34°41' E 135°11'0 0.0
2015-Apr-24 16:33N 34°41' E 135°11'0 0.0
2015-Apr-24 15:33N 34°41' E 135°11'0 0.0
2015-Apr-24 14:33N 34°41' E 135°11'0 0.0
2015-Apr-24 13:33N 34°41' E 135°11'0 0.0
2015-Apr-24 12:33N 34°41' E 135°11'4 3.8
2015-Apr-24 11:33N 34°37' E 135°09'3 3.1
2015-Apr-24 10:33N 34°40' E 135°11'0 0.1
2015-Apr-24 09:33N 34°40' E 135°11'1 1.3
2015-Apr-24 08:33N 34°39' E 135°11'2 2.3
2015-Apr-24 07:33N 34°41' E 135°11'3 3.0
2015-Apr-24 06:33N 34°38' E 135°10'3 2.2
2015-Apr-24 05:10N 34°41' E 135°11'1 0.9
2015-Apr-24 04:33N 34°40' E 135°11'3 2.7
2015-Apr-24 03:32N 34°38' E 135°10'3 3.0
2015-Apr-24 02:33N 34°41' E 135°11'0 0.0
2015-Apr-24 01:27N 34°41' E 135°11'0 0.0
2015-Apr-24 00:33N 34°41' E 135°11'0 0.0
2015-Apr-23 23:33N 34°41' E 135°11'0 0.0
2015-Apr-23 22:33N 34°41' E 135°11'0 0.0
2015-Apr-23 21:33N 34°41' E 135°11'0 0.0
2015-Apr-23 20:33N 34°41' E 135°11'0 0.0
2015-Apr-23 19:33N 34°41' E 135°11'0 0.0
2015-Apr-23 18:21N 34°41' E 135°11'0 0.0
2015-Apr-23 17:33N 34°41' E 135°11'0 0.0
2015-Apr-23 16:27N 34°41' E 135°11'0 0.0
2015-Apr-23 15:27N 34°41' E 135°11'0 0.0
2015-Apr-23 14:33N 34°41' E 135°11'0 0.0
2015-Apr-23 13:33N 34°41' E 135°11'0 0.0
2015-Apr-23 12:33N 34°41' E 135°11'3 3.0
2015-Apr-23 11:33N 34°38' E 135°11'2 2.1
2015-Apr-23 10:33N 34°40' E 135°11'0 0.2
2015-Apr-23 09:33N 34°40' E 135°11'1 0.8
2015-Apr-23 08:33N 34°39' E 135°11'2 1.9
2015-Apr-23 07:33N 34°41' E 135°11'3 3.0
2015-Apr-23 06:33N 34°38' E 135°10'3 2.8
2015-Apr-23 05:30N 34°41' E 135°11'0 0.4
2015-Apr-23 04:33N 34°40' E 135°11'3 3.0
2015-Apr-23 03:33N 34°38' E 135°09'3 3.1
2015-Apr-23 02:32N 34°41' E 135°11'0 0.0
2015-Apr-23 01:26N 34°41' E 135°11'0 0.0
2015-Apr-22 12:23N 34°41' E 135°11'3 3.6
2015-Apr-22 11:33N 34°38' E 135°10'2 2.0
2015-Apr-22 10:33N 34°40' E 135°11'0 0.4
2015-Apr-22 09:33N 34°39' E 135°11'1 0.7
2015-Apr-22 08:33N 34°39' E 135°11'2 1.9
2015-Apr-22 07:25N 34°41' E 135°11'3 3.7
2015-Apr-22 06:33N 34°38' E 135°09'3 2.8
2015-Apr-22 05:24N 34°41' E 135°11'1 0.7
2015-Apr-22 04:33N 34°40' E 135°12'3 2.6
2015-Apr-22 03:33N 34°38' E 135°10'1 0.1
2015-Apr-21 11:33N 34°38' E 135°11'2 1.6
2015-Apr-21 10:33N 34°40' E 135°11'0 0.3
2015-Apr-21 09:34N 34°39' E 135°11'1 1.1
2015-Apr-21 08:34N 34°39' E 135°10'2 2.1
2015-Apr-21 07:30N 34°41' E 135°11'3 3.5
2015-Apr-21 06:33N 34°38' E 135°09'3 3.3
2015-Apr-21 05:32N 34°41' E 135°11'0 0.4
2015-Apr-21 04:33N 34°41' E 135°11'3 2.9
2015-Apr-21 03:32N 34°38' E 135°09'1 0.1
2015-Apr-20 11:33N 34°38' E 135°11'2 1.7
2015-Apr-20 10:33N 34°40' E 135°11'1 0.9
2015-Apr-20 09:33N 34°40' E 135°12'2 1.7
2015-Apr-20 08:33N 34°39' E 135°11'2 1.9
2015-Apr-20 07:31N 34°41' E 135°11'1 1.1
2015-Apr-20 06:33N 34°40' E 135°12'1 1.1
2015-Apr-20 05:33N 34°41' E 135°11'0 0.1
2015-Apr-20 04:33N 34°41' E 135°11'2 2.3
2015-Apr-20 03:33N 34°38' E 135°11'1 0.1
2015-Apr-19 11:33N 34°38' E 135°10'3 2.9
2015-Apr-19 10:33N 34°41' E 135°11'1 1.2
2015-Apr-19 09:33N 34°39' E 135°11'1 1.0
2015-Apr-19 08:33N 34°38' E 135°11'2 2.2
2015-Apr-19 07:29N 34°41' E 135°11'3 3.2
2015-Apr-19 06:33N 34°38' E 135°10'3 2.4
2015-Apr-19 05:18N 34°41' E 135°11'1 0.8
2015-Apr-19 04:33N 34°40' E 135°12'3 3.2
2015-Apr-19 03:34N 34°38' E 135°09'3 0.2
2015-Apr-18 13:04N 34°41' E 135°11'0 0.0
2015-Apr-18 12:28N 34°41' E 135°11'3 3.0
2015-Apr-18 11:33N 34°38' E 135°11'  

Dump ship's entire track history